createdAt,value
2022-09-01T00:01:55.972Z,16.61
2022-09-01T00:04:03.166Z,16.61
2022-09-01T00:06:09.473Z,16.58
2022-09-01T00:08:12.125Z,16.61
2022-09-01T00:10:20.736Z,16.65
2022-09-01T00:12:25.688Z,16.67
2022-09-01T00:14:31.301Z,16.79
2022-09-01T00:16:34.477Z,16.70
2022-09-01T00:18:37.293Z,16.64
2022-09-01T00:20:41.238Z,16.61
2022-09-01T00:22:43.826Z,16.55
2022-09-01T00:24:46.774Z,16.56
2022-09-01T00:26:50.298Z,16.51
2022-09-01T00:28:53.057Z,16.52
2022-09-01T00:30:55.728Z,16.52
2022-09-01T00:32:58.419Z,16.53
2022-09-01T00:35:01.017Z,16.51
2022-09-01T00:37:05.189Z,16.46
2022-09-01T00:39:08.339Z,16.40
2022-09-01T00:41:14.333Z,16.39
2022-09-01T00:43:22.366Z,16.40
2022-09-01T00:45:25.116Z,16.38
2022-09-01T00:47:27.688Z,16.39
2022-09-01T00:49:35.061Z,16.31
2022-09-01T00:51:40.081Z,16.31
2022-09-01T00:53:45.690Z,16.34
2022-09-01T00:55:48.378Z,16.34
2022-09-01T00:57:51.276Z,16.36
2022-09-01T00:59:58.463Z,16.34
2022-09-01T01:02:01.134Z,16.33
2022-09-01T01:04:05.212Z,16.30
2022-09-01T01:06:09.413Z,16.30
2022-09-01T01:08:12.065Z,16.22
2022-09-01T01:10:18.267Z,16.22
2022-09-01T01:12:21.676Z,16.16
2022-09-01T01:14:24.284Z,16.14
2022-09-01T01:16:29.453Z,16.17
2022-09-01T01:18:32.357Z,16.13
2022-09-01T01:20:53.249Z,16.10
2022-09-01T01:23:10.739Z,16.10
2022-09-01T01:25:14.968Z,16.17
2022-09-01T01:27:21.855Z,16.17
2022-09-01T01:29:24.979Z,16.22
2022-09-01T01:31:27.547Z,16.19
2022-09-01T01:33:33.770Z,16.18
2022-09-01T01:35:37.499Z,16.13
2022-09-01T01:37:40.125Z,16.17
2022-09-01T01:39:44.733Z,16.14
2022-09-01T01:41:50.768Z,16.18
2022-09-01T01:43:53.373Z,16.19
2022-09-01T01:46:02.392Z,16.18
2022-09-01T01:48:08.495Z,16.17
2022-09-01T01:50:11.461Z,16.14
2022-09-01T01:52:17.605Z,16.21
2022-09-01T01:54:20.185Z,16.09
2022-09-01T01:56:25.616Z,16.15
2022-09-01T01:58:30.341Z,16.13
2022-09-01T02:00:34.586Z,16.10
2022-09-01T02:02:38.639Z,16.07
2022-09-01T02:04:42.382Z,16.03
2022-09-01T02:06:46.228Z,16.06
2022-09-01T02:08:48.804Z,16.07
2022-09-01T02:10:54.657Z,16.08
2022-09-01T02:12:58.054Z,16.04
2022-09-01T02:15:04.652Z,16.01
2022-09-01T02:17:08.143Z,16.01
2022-09-01T02:19:12.252Z,15.98
2022-09-01T02:21:19.624Z,16.05
2022-09-01T02:23:24.491Z,16.06
2022-09-01T02:25:27.473Z,16.09
2022-09-01T02:27:30.054Z,15.98
2022-09-01T02:29:33.249Z,15.99
2022-09-01T02:31:44.632Z,16.02
2022-09-01T02:33:47.507Z,16.02
2022-09-01T02:35:54.131Z,15.94
2022-09-01T02:38:00.996Z,15.95
2022-09-01T02:40:04.179Z,15.88
2022-09-01T02:42:08.490Z,15.88
2022-09-01T02:44:12.666Z,15.93
2022-09-01T02:46:16.553Z,15.88
2022-09-01T02:48:24.473Z,15.83
2022-09-01T02:50:27.349Z,15.85
2022-09-01T02:52:37.519Z,15.77
2022-09-01T02:54:40.134Z,15.70
2022-09-01T02:56:42.706Z,15.68
2022-09-01T02:58:46.937Z,15.65
2022-09-01T03:00:54.162Z,15.63
2022-09-01T03:02:58.873Z,15.56
2022-09-01T03:05:02.909Z,15.58
2022-09-01T03:07:08.841Z,15.51
2022-09-01T03:09:14.740Z,15.52
2022-09-01T03:11:18.508Z,15.54
2022-09-01T03:13:23.716Z,15.48
2022-09-01T03:15:27.456Z,15.50
2022-09-01T03:17:30.024Z,15.43
2022-09-01T03:19:41.888Z,15.38
2022-09-01T03:21:46.493Z,15.38
2022-09-01T03:23:52.080Z,15.39
2022-09-01T03:25:54.942Z,15.40
2022-09-01T03:28:03.029Z,15.43
2022-09-01T03:30:06.754Z,15.37
2022-09-01T03:32:09.431Z,15.35
2022-09-01T03:34:12.552Z,15.34
2022-09-01T03:36:19.327Z,15.31
2022-09-01T03:38:24.539Z,15.35
2022-09-01T03:40:30.022Z,15.32
2022-09-01T03:42:32.709Z,15.31
2022-09-01T03:44:40.206Z,15.41
2022-09-01T03:46:43.603Z,15.46
2022-09-01T03:48:47.815Z,15.52
2022-09-01T03:50:50.861Z,15.48
2022-09-01T03:52:56.658Z,15.48
2022-09-01T03:55:00.633Z,15.60
2022-09-01T03:57:05.981Z,15.56
2022-09-01T03:59:08.742Z,15.61
2022-09-01T04:01:13.582Z,15.73
2022-09-01T04:03:28.448Z,15.78
2022-09-01T04:05:33.949Z,15.78
2022-09-01T04:07:36.520Z,15.79
2022-09-01T04:09:39.851Z,15.82
2022-09-01T04:11:46.284Z,15.88
2022-09-01T04:13:48.993Z,15.92
2022-09-01T04:15:51.591Z,15.96
2022-09-01T04:18:09.665Z,15.94
2022-09-01T04:20:12.960Z,15.98
2022-09-01T04:22:17.598Z,15.95
2022-09-01T04:24:21.032Z,15.98
2022-09-01T04:26:26.785Z,16.01
2022-09-01T04:28:37.390Z,15.99
2022-09-01T04:30:40.724Z,15.97
2022-09-01T04:32:46.875Z,15.98
2022-09-01T04:34:49.729Z,15.97
2022-09-01T04:36:56.762Z,15.85
2022-09-01T04:39:08.756Z,15.77
2022-09-01T04:41:17.712Z,15.72
2022-09-01T04:43:20.459Z,15.68
2022-09-01T04:45:25.249Z,15.62
2022-09-01T04:47:35.263Z,15.62
2022-09-01T04:49:38.578Z,15.60
2022-09-01T04:51:42.003Z,15.54
2022-09-01T04:53:48.695Z,15.55
2022-09-01T04:55:52.465Z,15.51
2022-09-01T04:57:55.807Z,15.50
2022-09-01T04:59:58.507Z,15.48
2022-09-01T05:02:02.496Z,15.47
2022-09-01T05:04:05.249Z,15.46
2022-09-01T05:06:14.665Z,15.41
2022-09-01T05:08:23.935Z,15.37
2022-09-01T05:10:29.954Z,15.37
2022-09-01T05:12:32.740Z,15.36
2022-09-01T05:14:35.335Z,15.42
2022-09-01T05:16:38.924Z,15.38
2022-09-01T05:18:47.745Z,15.41
2022-09-01T05:20:53.031Z,15.43
2022-09-01T05:22:57.471Z,15.43
2022-09-01T05:25:13.134Z,15.45
2022-09-01T05:27:16.003Z,15.49
2022-09-01T05:29:19.008Z,15.49
2022-09-01T05:31:22.027Z,15.58
2022-09-01T05:33:24.617Z,15.68
2022-09-01T05:35:32.864Z,15.72
2022-09-01T05:37:38.004Z,15.75
2022-09-01T05:39:40.591Z,15.79
2022-09-01T05:41:43.794Z,15.77
2022-09-01T05:43:55.084Z,15.72
2022-09-01T05:46:11.280Z,15.81
2022-09-01T05:48:21.816Z,15.77
2022-09-01T05:50:24.489Z,15.75
2022-09-01T05:52:31.624Z,15.77
2022-09-01T05:54:34.861Z,15.79
2022-09-01T05:56:43.511Z,15.85
2022-09-01T06:01:13.341Z,15.90
2022-09-01T06:03:17.726Z,16.02
2022-09-01T06:05:20.892Z,16.03
2022-09-01T06:07:26.668Z,16.08
2022-09-01T06:09:30.671Z,16.10
2022-09-01T06:11:33.312Z,16.15
2022-09-01T06:13:35.884Z,16.20
2022-09-01T06:15:39.486Z,16.23
2022-09-01T06:17:43.825Z,16.26
2022-09-01T06:19:46.737Z,16.29
2022-09-01T06:21:49.373Z,16.32
2022-09-01T06:23:54.001Z,16.33
2022-09-01T06:26:01.704Z,16.34
2022-09-01T06:28:04.928Z,16.38
2022-09-01T06:30:15.057Z,16.39
2022-09-01T06:32:19.308Z,16.36
2022-09-01T06:34:22.349Z,16.39
2022-09-01T06:36:26.026Z,16.41
2022-09-01T06:38:29.396Z,16.40
2022-09-01T06:40:32.398Z,16.33
2022-09-01T06:42:37.794Z,16.39
2022-09-01T06:44:41.182Z,16.51
2022-09-01T06:46:43.858Z,16.61
2022-09-01T06:48:47.343Z,16.53
2022-09-01T06:53:34.323Z,16.61
2022-09-01T06:55:39.099Z,16.69
2022-09-01T07:00:18.812Z,16.79
2022-09-01T07:02:26.913Z,16.83
2022-09-01T07:04:31.399Z,16.86
2022-09-01T07:16:33.869Z,16.96
2022-09-01T07:18:38.182Z,17.00
2022-09-01T07:23:07.080Z,17.11
2022-09-01T07:25:12.875Z,17.13
2022-09-01T07:27:15.911Z,17.15
2022-09-01T07:29:25.700Z,17.19
2022-09-01T07:34:38.526Z,17.21
2022-09-01T07:36:26.820Z,17.16
2022-09-01T07:42:59.234Z,16.73
2022-09-01T07:43:22.265Z,17.25
2022-09-01T07:45:26.924Z,17.31
2022-09-01T07:50:24.283Z,17.36
2022-09-01T07:52:17.444Z,17.35
2022-09-01T07:54:25.499Z,17.36
2022-09-01T07:56:30.171Z,17.37
2022-09-01T07:58:33.599Z,17.41
2022-09-01T08:00:38.087Z,17.48
2022-09-01T08:02:40.824Z,17.53
2022-09-01T08:04:43.430Z,17.57
2022-09-01T08:06:46.012Z,17.61
2022-09-01T08:08:50.775Z,17.61
2022-09-01T08:10:53.402Z,17.67
2022-09-01T08:12:56.860Z,17.67
2022-09-01T08:15:40.490Z,17.67
2022-09-01T08:19:47.007Z,17.75
2022-09-01T08:21:49.659Z,17.75
2022-09-01T08:23:54.109Z,17.74
2022-09-01T08:25:56.722Z,17.76
2022-09-01T08:28:00.648Z,17.81
2022-09-01T08:30:04.651Z,17.84
2022-09-01T08:32:08.422Z,17.88
2022-09-01T08:34:12.635Z,17.99
2022-09-01T08:36:21.549Z,18.10
2022-09-01T08:38:26.437Z,18.19
2022-09-01T08:40:30.361Z,18.23
2022-09-01T08:42:45.760Z,18.32
2022-09-01T08:45:00.216Z,18.37
2022-09-01T08:47:07.024Z,18.42
2022-09-01T08:49:25.311Z,18.44
2022-09-01T08:51:36.152Z,18.51
2022-09-01T08:53:45.540Z,18.59
2022-09-01T08:55:51.808Z,18.63
2022-09-01T08:57:59.744Z,18.72
2022-09-01T09:00:02.702Z,18.78
2022-09-01T09:02:17.660Z,18.83
2022-09-01T09:04:38.261Z,18.89
2022-09-01T09:06:55.415Z,18.91
2022-09-01T09:08:59.694Z,18.96
2022-09-01T09:11:05.288Z,18.97
2022-09-01T09:13:13.384Z,19.01
2022-09-01T09:15:23.465Z,19.04
2022-09-01T09:17:31.006Z,19.07
2022-09-01T09:19:37.892Z,19.06
2022-09-01T09:21:42.769Z,19.09
2022-09-01T09:23:49.648Z,19.13
2022-09-01T09:25:52.312Z,19.15
2022-09-01T09:28:02.002Z,19.20
2022-09-01T09:30:11.187Z,19.27
2022-09-01T09:32:50.426Z,19.31
2022-09-01T09:34:40.292Z,19.41
2022-09-01T09:36:48.039Z,19.44
2022-09-01T09:39:11.994Z,19.50
2022-09-01T09:41:26.539Z,19.54
2022-09-01T09:43:32.863Z,19.62
2022-09-01T09:45:41.658Z,19.64
2022-09-01T09:47:46.645Z,19.66
2022-09-01T09:50:12.461Z,19.66
2022-09-01T09:52:19.039Z,19.69
2022-09-01T09:54:26.701Z,19.71
2022-09-01T09:56:29.327Z,19.76
2022-09-01T09:58:39.044Z,19.82
2022-09-01T10:00:44.721Z,19.87
2022-09-01T10:02:54.323Z,20.01
2022-09-01T10:04:59.313Z,20.11
2022-09-01T10:07:01.985Z,20.19
2022-09-01T10:09:07.026Z,20.35
2022-09-01T10:11:10.383Z,20.42
2022-09-01T10:13:15.658Z,20.48
2022-09-01T10:15:21.271Z,20.52
2022-09-01T10:17:30.442Z,20.57
2022-09-01T10:19:35.889Z,20.64
2022-09-01T10:21:42.096Z,20.72
2022-09-01T10:23:45.110Z,20.80
2022-09-01T10:25:51.105Z,20.85
2022-09-01T10:27:59.258Z,20.88
2022-09-01T10:30:20.141Z,20.90
2022-09-01T10:32:36.956Z,20.89
2022-09-01T10:34:42.685Z,21.07
2022-09-01T10:36:55.892Z,20.97
2022-09-01T10:39:05.008Z,20.99
2022-09-01T10:41:14.000Z,21.05
2022-09-01T10:43:45.078Z,21.06
2022-09-01T10:45:53.335Z,21.06
2022-09-01T10:48:33.296Z,21.06
2022-09-01T10:50:36.517Z,21.09
2022-09-01T10:53:01.764Z,21.11
2022-09-01T10:55:07.407Z,21.09
2022-09-01T10:57:12.666Z,21.12
2022-09-01T10:59:40.330Z,21.13
2022-09-01T11:02:35.291Z,21.16
2022-09-01T11:05:24.706Z,21.21
2022-09-01T11:07:56.587Z,21.24
2022-09-01T11:10:34.729Z,21.27
2022-09-01T11:12:48.790Z,21.27
2022-09-01T11:14:54.833Z,21.25
2022-09-01T11:17:15.540Z,21.26
2022-09-01T11:19:44.505Z,21.26
2022-09-01T11:21:48.379Z,21.49
2022-09-01T11:23:52.749Z,21.39
2022-09-01T11:28:38.542Z,21.48
2022-09-01T11:30:52.015Z,21.53
2022-09-01T11:33:03.373Z,21.62
2022-09-01T11:35:16.583Z,21.59
2022-09-01T11:37:23.302Z,21.57
2022-09-01T11:39:33.466Z,21.51
2022-09-01T11:41:55.861Z,21.53
2022-09-01T11:44:01.848Z,21.58
2022-09-01T11:46:14.984Z,21.61
2022-09-01T11:48:18.427Z,21.65
2022-09-01T11:50:24.968Z,21.66
2022-09-01T11:52:32.121Z,21.70
2022-09-01T11:54:41.268Z,21.74
2022-09-01T11:56:45.263Z,21.77
2022-09-01T11:58:47.904Z,21.78
2022-09-01T12:00:50.504Z,21.80
2022-09-01T12:02:57.144Z,21.82
2022-09-01T12:05:02.019Z,21.87
2022-09-01T12:07:10.807Z,21.92
2022-09-01T12:09:13.780Z,21.96
2022-09-01T12:11:22.424Z,21.97
2022-09-01T12:13:26.374Z,21.96
2022-09-01T12:15:30.655Z,22.00
2022-09-01T12:17:33.288Z,22.01
2022-09-01T12:19:38.544Z,22.01
2022-09-01T12:21:44.716Z,21.99
2022-09-01T12:23:47.632Z,21.99
2022-09-01T12:25:50.476Z,22.06
2022-09-01T12:27:53.570Z,22.15
2022-09-01T12:29:58.765Z,22.17
2022-09-01T12:32:02.270Z,22.23
2022-09-01T12:34:04.993Z,22.33
2022-09-01T12:36:23.765Z,22.55
2022-09-01T12:38:30.627Z,22.73
2022-09-01T12:40:36.359Z,22.91
2022-09-01T12:42:41.556Z,23.13
2022-09-01T12:44:51.350Z,23.35
2022-09-01T12:46:55.596Z,23.57
2022-09-01T12:49:17.702Z,23.84
2022-09-01T12:51:26.504Z,24.21
2022-09-01T12:53:36.508Z,24.73
2022-09-01T12:55:54.838Z,25.37
2022-09-01T12:57:59.961Z,25.35
2022-09-01T13:00:18.026Z,25.22
2022-09-01T13:02:36.243Z,25.04
2022-09-01T13:04:38.932Z,24.76
2022-09-01T13:06:41.854Z,24.47
2022-09-01T13:08:44.627Z,24.23
2022-09-01T13:10:49.317Z,24.01
2022-09-01T13:12:52.669Z,23.79
2022-09-01T13:14:55.240Z,23.63
2022-09-01T13:16:58.262Z,23.47
2022-09-01T13:19:26.562Z,23.34
2022-09-01T13:21:25.210Z,23.30
2022-09-01T13:23:27.920Z,23.31
2022-09-01T13:25:30.520Z,23.57
2022-09-01T13:27:33.116Z,24.36
2022-09-01T13:29:35.706Z,25.02
2022-09-01T13:32:16.072Z,25.85
2022-09-01T13:34:10.692Z,26.76
2022-09-01T13:38:45.977Z,27.95
2022-09-01T13:40:53.533Z,27.92
2022-09-01T13:42:56.185Z,28.05
2022-09-01T13:44:58.758Z,28.22
2022-09-01T13:47:28.665Z,28.41
2022-09-01T13:51:51.991Z,28.36
2022-09-01T13:53:55.104Z,27.99
2022-09-01T13:58:05.576Z,27.60
2022-09-01T14:00:11.695Z,27.32
2022-09-01T14:02:17.011Z,27.35
2022-09-01T14:04:22.902Z,26.82
2022-09-01T14:06:26.849Z,26.32
2022-09-01T14:08:30.724Z,26.18
2022-09-01T14:10:33.937Z,26.22
2022-09-01T14:12:36.646Z,26.52
2022-09-01T14:17:04.534Z,26.62
2022-09-01T14:19:07.192Z,26.67
2022-09-01T14:21:13.415Z,26.71
2022-09-01T14:23:18.112Z,26.59
2022-09-01T14:25:21.496Z,26.57
2022-09-01T14:27:24.108Z,26.48
2022-09-01T14:29:27.603Z,26.39
2022-09-01T14:31:30.499Z,26.46
2022-09-01T14:33:34.097Z,26.39
2022-09-01T14:35:38.947Z,26.34
2022-09-01T14:37:42.170Z,26.32
2022-09-01T14:39:50.384Z,26.22
2022-09-01T14:41:53.004Z,26.16
2022-09-01T14:44:02.338Z,26.05
2022-09-01T14:46:08.308Z,26.01
2022-09-01T14:48:11.247Z,25.96
2022-09-01T14:50:15.999Z,25.84
2022-09-01T14:52:22.101Z,25.81
2022-09-01T14:54:24.803Z,25.65
2022-09-01T14:56:30.057Z,25.49
2022-09-01T14:58:33.206Z,25.26
2022-09-01T15:00:37.008Z,25.13
2022-09-01T15:02:40.960Z,25.07
2022-09-01T15:04:43.634Z,25.04
2022-09-01T15:06:46.275Z,25.05
2022-09-01T15:08:49.498Z,25.06
2022-09-01T15:10:52.023Z,25.08
2022-09-01T15:12:58.671Z,25.17
2022-09-01T15:15:02.485Z,25.26
2022-09-01T15:17:06.999Z,25.41
2022-09-01T15:19:12.673Z,25.42
2022-09-01T15:21:20.399Z,25.38
2022-09-01T15:23:25.539Z,25.40
2022-09-01T15:25:28.148Z,25.42
2022-09-01T15:27:30.705Z,25.40
2022-09-01T15:29:36.836Z,25.37
2022-09-01T15:31:39.900Z,25.29
2022-09-01T15:33:43.154Z,25.25
2022-09-01T15:35:46.596Z,25.12
2022-09-01T15:37:50.090Z,24.95
2022-09-01T15:39:52.630Z,24.97
2022-09-01T15:41:55.230Z,24.88
2022-09-01T15:43:58.941Z,24.82
2022-09-01T15:46:05.425Z,24.82
2022-09-01T15:48:08.245Z,24.85
2022-09-01T15:50:16.843Z,24.84
2022-09-01T15:52:24.758Z,24.88
2022-09-01T15:54:30.501Z,24.98
2022-09-01T15:56:33.475Z,25.22
2022-09-01T15:58:57.527Z,25.44
2022-09-01T16:01:00.098Z,25.59
2022-09-01T16:03:04.415Z,25.90
2022-09-01T16:05:08.276Z,25.85
2022-09-01T16:07:10.921Z,25.87
2022-09-01T16:09:14.610Z,25.99
2022-09-01T16:11:17.391Z,25.90
2022-09-01T16:13:20.604Z,25.99
2022-09-01T16:15:25.463Z,25.97
2022-09-01T16:17:43.680Z,25.82
2022-09-01T16:19:55.956Z,25.82
2022-09-01T16:22:06.940Z,25.77
2022-09-01T16:24:13.067Z,25.67
2022-09-01T16:26:17.984Z,25.88
2022-09-01T16:28:27.619Z,25.58
2022-09-01T16:30:30.904Z,25.45
2022-09-01T16:32:33.703Z,25.36
2022-09-01T16:34:47.156Z,25.29
2022-09-01T16:36:57.502Z,25.43
2022-09-01T16:39:05.145Z,25.25
2022-09-01T16:41:13.808Z,25.20
2022-09-01T16:43:25.656Z,25.19
2022-09-01T16:45:43.159Z,25.09
2022-09-01T16:47:56.418Z,24.96
2022-09-01T16:50:06.854Z,24.85
2022-09-01T16:52:19.053Z,24.73
2022-09-01T16:54:30.804Z,24.62
2022-09-01T16:56:36.580Z,24.50
2022-09-01T16:58:47.174Z,24.38
2022-09-01T17:00:59.041Z,24.27
2022-09-01T17:03:10.042Z,24.15
2022-09-01T17:05:25.318Z,24.10
2022-09-01T17:07:38.276Z,23.99
2022-09-01T17:09:43.888Z,23.87
2022-09-01T17:11:52.771Z,23.77
2022-09-01T17:13:58.102Z,23.68
2022-09-01T17:16:07.883Z,23.58
2022-09-01T17:18:22.978Z,23.52
2022-09-01T17:20:30.097Z,23.46
2022-09-01T17:22:37.329Z,23.38
2022-09-01T17:24:42.722Z,23.28
2022-09-01T17:26:50.726Z,23.21
2022-09-01T17:28:58.600Z,23.29
2022-09-01T17:31:14.256Z,23.16
2022-09-01T17:33:24.542Z,23.07
2022-09-01T17:35:37.685Z,23.00
2022-09-01T17:37:56.355Z,22.93
2022-09-01T17:40:10.770Z,22.86
2022-09-01T17:42:24.932Z,22.76
2022-09-01T17:44:37.185Z,22.65
2022-09-01T17:46:44.509Z,22.61
2022-09-01T17:48:52.955Z,22.52
2022-09-01T17:51:03.516Z,22.44
2022-09-01T17:53:22.227Z,22.36
2022-09-01T17:55:40.381Z,22.28
2022-09-01T17:57:47.725Z,22.19
2022-09-01T17:59:57.563Z,22.14
2022-09-01T18:02:20.154Z,22.04
2022-09-01T18:04:40.103Z,21.99
2022-09-01T18:06:50.117Z,21.90
2022-09-01T18:08:58.129Z,21.84
2022-09-01T18:11:03.196Z,21.78
2022-09-01T18:13:08.093Z,21.71
2022-09-01T18:15:14.333Z,21.66
2022-09-01T18:17:23.534Z,21.59
2022-09-01T18:19:36.860Z,21.54
2022-09-01T18:21:49.299Z,21.48
2022-09-01T18:23:56.697Z,21.41
2022-09-01T18:26:07.336Z,21.41
2022-09-01T18:28:11.801Z,21.32
2022-09-01T18:30:22.361Z,21.24
2022-09-01T18:32:42.284Z,21.22
2022-09-01T18:35:02.876Z,21.15
2022-09-01T18:37:15.210Z,21.10
2022-09-01T18:39:28.111Z,21.03
2022-09-01T18:41:44.301Z,20.99
2022-09-01T18:43:55.487Z,20.95
2022-09-01T18:46:05.201Z,20.92
2022-09-01T18:48:19.872Z,20.90
2022-09-01T18:50:27.850Z,20.90
2022-09-01T18:52:50.355Z,20.87
2022-09-01T18:55:03.756Z,20.85
2022-09-01T18:57:07.882Z,20.83
2022-09-01T18:59:26.577Z,20.77
2022-09-01T19:01:50.236Z,20.71
2022-09-01T19:03:58.616Z,20.66
2022-09-01T19:06:20.807Z,20.59
2022-09-01T19:08:37.513Z,20.55
2022-09-01T19:10:45.861Z,20.43
2022-09-01T19:12:56.428Z,20.42
2022-09-01T19:15:11.571Z,20.43
2022-09-01T19:17:42.326Z,20.35
2022-09-01T19:19:49.758Z,20.34
2022-09-01T19:21:55.833Z,20.32
2022-09-01T19:24:03.152Z,20.31
2022-09-01T19:26:11.956Z,20.29
2022-09-01T19:28:20.540Z,20.26
2022-09-01T19:30:23.273Z,20.23
2022-09-01T19:32:29.698Z,20.20
2022-09-01T19:34:37.332Z,20.16
2022-09-01T19:36:42.946Z,20.14
2022-09-01T19:38:45.593Z,20.10
2022-09-01T19:40:51.658Z,20.06
2022-09-01T19:43:03.125Z,20.04
2022-09-01T19:45:12.345Z,20.00
2022-09-01T19:47:21.713Z,19.98
2022-09-01T19:49:38.273Z,19.92
2022-09-01T19:51:46.856Z,19.91
2022-09-01T19:53:55.122Z,19.89
2022-09-01T19:56:03.357Z,19.81
2022-09-01T19:58:11.063Z,19.79
2022-09-01T20:00:16.377Z,19.74
2022-09-01T20:02:27.890Z,19.68
2022-09-01T20:04:40.300Z,19.64
2022-09-01T20:06:47.536Z,19.60
2022-09-01T20:08:57.385Z,19.57
2022-09-01T20:11:05.198Z,19.56
2022-09-01T20:13:27.122Z,19.51
2022-09-01T20:15:32.655Z,19.46
2022-09-01T20:17:41.820Z,19.48
2022-09-01T20:19:50.599Z,19.46
2022-09-01T20:21:53.662Z,19.42
2022-09-01T20:24:01.134Z,19.37
2022-09-01T20:26:07.325Z,19.32
2022-09-01T20:28:20.771Z,19.27
2022-09-01T20:30:25.498Z,19.20
2022-09-01T20:32:33.734Z,19.16
2022-09-01T20:34:44.570Z,19.16
2022-09-01T20:36:51.603Z,19.10
2022-09-01T20:39:19.506Z,19.09
2022-09-01T20:41:28.815Z,19.06
2022-09-01T20:43:38.930Z,19.03
2022-09-01T20:45:42.632Z,19.02
2022-09-01T20:47:50.362Z,18.97
2022-09-01T20:49:53.084Z,18.89
2022-09-01T20:52:01.252Z,18.86
2022-09-01T20:54:16.035Z,18.82
2022-09-01T20:56:23.231Z,18.80
2022-09-01T20:58:36.819Z,18.76
2022-09-01T21:00:49.666Z,18.70
2022-09-01T21:03:01.438Z,18.69
2022-09-01T21:05:11.050Z,18.59
2022-09-01T21:07:16.502Z,18.62
2022-09-01T21:09:31.463Z,18.60
2022-09-01T21:11:43.095Z,18.69
2022-09-01T21:13:57.446Z,18.50
2022-09-01T21:16:07.560Z,18.44
2022-09-01T21:18:27.175Z,18.42
2022-09-01T21:20:39.549Z,18.38
2022-09-01T21:22:42.125Z,18.36
2022-09-01T21:24:44.731Z,18.37
2022-09-01T21:26:48.926Z,18.39
2022-09-01T21:28:56.720Z,18.42
2022-09-01T21:31:00.601Z,18.36
2022-09-01T21:33:04.460Z,18.33
2022-09-01T21:35:09.821Z,18.27
2022-09-01T21:37:12.813Z,18.25
2022-09-01T21:39:15.466Z,18.25
2022-09-01T21:41:18.145Z,18.24
2022-09-01T21:43:23.775Z,18.18
2022-09-01T21:45:28.181Z,18.20
2022-09-01T21:47:33.776Z,18.17
2022-09-01T21:49:36.840Z,18.16
2022-09-01T21:51:39.473Z,18.10
2022-09-01T21:53:43.338Z,18.05
2022-09-01T21:55:46.250Z,18.06
2022-09-01T21:57:51.907Z,18.01
2022-09-01T21:59:54.488Z,18.03
2022-09-01T22:01:58.439Z,18.03
2022-09-01T22:04:01.397Z,18.00
2022-09-01T22:06:04.100Z,17.99
2022-09-01T22:08:06.940Z,17.97
2022-09-01T22:10:12.750Z,17.96
2022-09-01T22:12:15.847Z,17.98
2022-09-01T22:14:19.135Z,17.99
2022-09-01T22:16:22.403Z,18.02
2022-09-01T22:18:26.439Z,18.01
2022-09-01T22:20:31.901Z,18.04
2022-09-01T22:22:35.525Z,18.03
2022-09-01T22:24:38.096Z,18.02
2022-09-01T22:26:40.646Z,17.97
2022-09-01T22:28:43.338Z,17.94
2022-09-01T22:30:47.206Z,17.92
2022-09-01T22:32:49.826Z,17.87
2022-09-01T22:34:53.836Z,17.88
2022-09-01T22:36:56.402Z,17.86
2022-09-01T22:38:59.860Z,17.90
2022-09-01T22:41:02.483Z,17.89
2022-09-01T22:43:05.632Z,17.89
2022-09-01T22:45:10.247Z,17.88
2022-09-01T22:47:12.885Z,17.86
2022-09-01T22:49:15.576Z,17.83
2022-09-01T22:51:19.880Z,17.81
2022-09-01T22:53:23.463Z,17.82
2022-09-01T22:55:28.081Z,17.81
2022-09-01T22:57:30.894Z,17.78
2022-09-01T22:59:33.617Z,17.73
2022-09-01T23:01:38.827Z,17.75
2022-09-01T23:03:42.446Z,17.71
2022-09-01T23:05:46.307Z,17.74
2022-09-01T23:07:50.393Z,17.76
2022-09-01T23:09:53.015Z,17.71
2022-09-01T23:11:56.420Z,17.75
2022-09-01T23:13:59.748Z,17.76
2022-09-01T23:16:04.197Z,17.92
2022-09-01T23:18:06.870Z,17.81
2022-09-01T23:20:13.095Z,17.88
2022-09-01T23:22:15.688Z,17.81
2022-09-01T23:24:20.048Z,17.78
2022-09-01T23:26:23.071Z,17.75
2022-09-01T23:28:25.678Z,17.75
2022-09-01T23:30:28.300Z,17.73
2022-09-01T23:32:33.372Z,17.72
2022-09-01T23:34:35.999Z,17.67
2022-09-01T23:36:38.756Z,17.66
2022-09-01T23:38:42.035Z,17.66
2022-09-01T23:40:48.465Z,17.66
2022-09-01T23:42:51.070Z,17.81
2022-09-01T23:44:53.837Z,17.71
2022-09-01T23:46:56.455Z,17.69
2022-09-01T23:48:59.733Z,17.60
2022-09-01T23:51:09.248Z,17.55
2022-09-01T23:53:12.425Z,17.53
2022-09-01T23:55:15.049Z,17.46
2022-09-01T23:57:19.068Z,17.43
2022-09-01T23:59:27.536Z,17.41
